sensor_id;sensor_type;location;lat;lon;timestamp;P1;durP1;ratioP1;P2;durP2;ratioP2
26824;SDS011;14402;48.178;11.566;2023-11-19T00:00:20;1.9;;;1.3;;
26824;SDS011;14402;48.178;11.566;2023-11-19T00:00:50;1.9;;;1.3;;
26824;SDS011;14402;48.178;11.566;2023-11-19T00:01:21;1.9;;;1.3;;
26824;SDS011;14402;48.178;11.566;2023-11-19T00:01:50;2.0;;;1.1;;
26824;SDS011;14402;48.178;11.566;2023-11-19T00:02:21;2.0;;;1.0;;
26824;SDS011;14402;48.178;11.566;2023-11-19T00:02:51;2.0;;;1.0;;
26824;SDS011;14402;48.178;11.566;2023-11-19T00:03:21;2.0;;;1.0;;
26824;SDS011;14402;48.178;11.566;2023-11-19T00:03:51;2.0;;;1.2;;
26824;SDS011;14402;48.178;11.566;2023-11-19T00:04:21;2.1;;;1.4;;
26824;SDS011;14402;48.178;11.566;2023-11-19T00:04:51;2.1;;;1.4;;
26824;SDS011;14402;48.178;11.566;2023-11-19T00:05:21;2.1;;;1.4;;
26824;SDS011;14402;48.178;11.566;2023-11-19T00:05:51;2.1;;;1.4;;
26824;SDS011;14402;48.178;11.566;2023-11-19T00:06:21;2.1;;;1.4;;
26824;SDS011;14402;48.178;11.566;2023-11-19T00:06:51;2.1;;;1.4;;
26824;SDS011;14402;48.178;11.566;2023-11-19T00:07:22;2.1;;;1.4;;
26824;SDS011;14402;48.178;11.566;2023-11-19T00:07:52;1.9;;;1.3;;
26824;SDS011;14402;48.178;11.566;2023-11-19T00:08:22;1.7;;;1.3;;
26824;SDS011;14402;48.178;11.566;2023-11-19T00:08:52;1.7;;;1.3;;
26824;SDS011;14402;48.178;11.566;2023-11-19T00:09:22;1.7;;;1.3;;
26824;SDS011;14402;48.178;11.566;2023-11-19T00:09:52;1.8;;;1.2;;
26824;SDS011;14402;48.178;11.566;2023-11-19T00:10:22;1.8;;;1.2;;
26824;SDS011;14402;48.178;11.566;2023-11-19T00:10:52;1.8;;;1.2;;
26824;SDS011;14402;48.178;11.566;2023-11-19T00:11:22;1.8;;;1.2;;
26824;SDS011;14402;48.178;11.566;2023-11-19T00:11:52;1.9;;;1.2;;
26824;SDS011;14402;48.178;11.566;2023-11-19T00:12:22;2.1;;;1.3;;
26824;SDS011;14402;48.178;11.566;2023-11-19T00:12:53;2.1;;;1.3;;
26824;SDS011;14402;48.178;11.566;2023-11-19T00:13:23;2.1;;;1.3;;
26824;SDS011;14402;48.178;11.566;2023-11-19T00:13:53;1.8;;;1.2;;
26824;SDS011;14402;48.178;11.566;2023-11-19T00:14:23;1.5;;;1.2;;
26824;SDS011;14402;48.178;11.566;2023-11-19T00:14:53;1.5;;;1.2;;
26824;SDS011;14402;48.178;11.566;2023-11-19T00:15:23;1.5;;;1.2;;
26824;SDS011;14402;48.178;11.566;2023-11-19T00:15:53;1.4;;;1.2;;
26824;SDS011;14402;48.178;11.566;2023-11-19T00:16:23;1.2;;;1.1;;
26824;SDS011;14402;48.178;11.566;2023-11-19T00:16:53;1.2;;;1.1;;
26824;SDS011;14402;48.178;11.566;2023-11-19T00:17:25;1.2;;;1.1;;
26824;SDS011;14402;48.178;11.566;2023-11-19T00:17:54;1.5;;;1.2;;
26824;SDS011;14402;48.178;11.566;2023-11-19T00:18:24;1.7;;;1.3;;
26824;SDS011;14402;48.178;11.566;2023-11-19T00:18:54;1.7;;;1.3;;
26824;SDS011;14402;48.178;11.566;2023-11-19T00:19:24;1.7;;;1.3;;
26824;SDS011;14402;48.178;11.566;2023-11-19T00:19:54;1.9;;;1.3;;
26824;SDS011;14402;48.178;11.566;2023-11-19T00:20:24;2.0;;;1.3;;
26824;SDS011;14402;48.178;11.566;2023-11-19T00:20:54;2.0;;;1.3;;
26824;SDS011;14402;48.178;11.566;2023-11-19T00:21:24;2.0;;;1.3;;
26824;SDS011;14402;48.178;11.566;2023-11-19T00:21:54;2.7;;;1.4;;
26824;SDS011;14402;48.178;11.566;2023-11-19T00:22:24;3.3;;;1.5;;
26824;SDS011;14402;48.178;11.566;2023-11-19T00:22:54;3.3;;;1.5;;
26824;SDS011;14402;48.178;11.566;2023-11-19T00:23:24;3.3;;;1.5;;
26824;SDS011;14402;48.178;11.566;2023-11-19T00:23:54;2.5;;;1.5;;
26824;SDS011;14402;48.178;11.566;2023-11-19T00:24:24;1.7;;;1.5;;
26824;SDS011;14402;48.178;11.566;2023-11-19T00:24:55;1.7;;;1.5;;
26824;SDS011;14402;48.178;11.566;2023-11-19T00:25:25;1.7;;;1.5;;
26824;SDS011;14402;48.178;11.566;2023-11-19T00:25:55;1.6;;;1.4;;
26824;SDS011;14402;48.178;11.566;2023-11-19T00:26:25;1.5;;;1.2;;
26824;SDS011;14402;48.178;11.566;2023-11-19T00:26:55;1.5;;;1.2;;
26824;SDS011;14402;48.178;11.566;2023-11-19T00:27:25;1.5;;;1.2;;
26824;SDS011;14402;48.178;11.566;2023-11-19T00:27:55;1.4;;;1.2;;
26824;SDS011;14402;48.178;11.566;2023-11-19T00:28:25;1.3;;;1.2;;
26824;SDS011;14402;48.178;11.566;2023-11-19T00:28:55;1.3;;;1.2;;
26824;SDS011;14402;48.178;11.566;2023-11-19T00:29:26;1.3;;;1.2;;
26824;SDS011;14402;48.178;11.566;2023-11-19T00:29:56;1.2;;;1.1;;
26824;SDS011;14402;48.178;11.566;2023-11-19T00:30:26;1.2;;;1.0;;
26824;SDS011;14402;48.178;11.566;2023-11-19T00:30:56;1.2;;;1.0;;
26824;SDS011;14402;48.178;11.566;2023-11-19T00:31:26;1.2;;;1.0;;
26824;SDS011;14402;48.178;11.566;2023-11-19T00:31:56;1.4;;;1.1;;
26824;SDS011;14402;48.178;11.566;2023-11-19T00:32:26;1.6;;;1.2;;
26824;SDS011;14402;48.178;11.566;2023-11-19T00:32:56;1.6;;;1.2;;
26824;SDS011;14402;48.178;11.566;2023-11-19T00:33:26;1.6;;;1.2;;
26824;SDS011;14402;48.178;11.566;2023-11-19T00:33:56;1.8;;;1.2;;
26824;SDS011;14402;48.178;11.566;2023-11-19T00:34:26;2.1;;;1.1;;
26824;SDS011;14402;48.178;11.566;2023-11-19T00:34:57;2.1;;;1.1;;
26824;SDS011;14402;48.178;11.566;2023-11-19T00:35:27;2.1;;;1.1;;
26824;SDS011;14402;48.178;11.566;2023-11-19T00:35:57;1.9;;;1.2;;
26824;SDS011;14402;48.178;11.566;2023-11-19T00:36:27;1.7;;;1.4;;
26824;SDS011;14402;48.178;11.566;2023-11-19T00:36:57;1.7;;;1.4;;
26824;SDS011;14402;48.178;11.566;2023-11-19T00:37:27;1.7;;;1.4;;
26824;SDS011;14402;48.178;11.566;2023-11-19T00:37:57;1.7;;;1.2;;
26824;SDS011;14402;48.178;11.566;2023-11-19T00:38:27;1.6;;;1.1;;
26824;SDS011;14402;48.178;11.566;2023-11-19T00:38:57;1.6;;;1.1;;
26824;SDS011;14402;48.178;11.566;2023-11-19T00:39:27;1.6;;;1.1;;
26824;SDS011;14402;48.178;11.566;2023-11-19T00:39:57;1.7;;;1.2;;
26824;SDS011;14402;48.178;11.566;2023-11-19T00:40:28;1.8;;;1.3;;
26824;SDS011;14402;48.178;11.566;2023-11-19T00:40:58;1.8;;;1.3;;
26824;SDS011;14402;48.178;11.566;2023-11-19T00:41:28;1.8;;;1.3;;
26824;SDS011;14402;48.178;11.566;2023-11-19T00:41:58;1.6;;;1.2;;
26824;SDS011;14402;48.178;11.566;2023-11-19T00:42:28;1.4;;;1.2;;
26824;SDS011;14402;48.178;11.566;2023-11-19T00:42:58;1.4;;;1.2;;
26824;SDS011;14402;48.178;11.566;2023-11-19T00:43:28;1.4;;;1.2;;
26824;SDS011;14402;48.178;11.566;2023-11-19T00:43:58;1.5;;;1.1;;
26824;SDS011;14402;48.178;11.566;2023-11-19T00:44:28;1.7;;;1.0;;
26824;SDS011;14402;48.178;11.566;2023-11-19T00:44:58;1.7;;;1.0;;
26824;SDS011;14402;48.178;11.566;2023-11-19T00:45:29;1.7;;;1.0;;
26824;SDS011;14402;48.178;11.566;2023-11-19T00:45:59;1.7;;;1.1;;
26824;SDS011;14402;48.178;11.566;2023-11-19T00:46:29;1.6;;;1.3;;
26824;SDS011;14402;48.178;11.566;2023-11-19T00:46:59;1.6;;;1.3;;
26824;SDS011;14402;48.178;11.566;2023-11-19T00:47:29;1.6;;;1.3;;
26824;SDS011;14402;48.178;11.566;2023-11-19T00:47:59;1.5;;;1.2;;
26824;SDS011;14402;48.178;11.566;2023-11-19T00:48:29;1.4;;;1.1;;
26824;SDS011;14402;48.178;11.566;2023-11-19T00:48:59;1.4;;;1.1;;
26824;SDS011;14402;48.178;11.566;2023-11-19T00:49:29;1.4;;;1.1;;
26824;SDS011;14402;48.178;11.566;2023-11-19T00:49:59;2.1;;;1.2;;
26824;SDS011;14402;48.178;11.566;2023-11-19T00:50:29;2.8;;;1.2;;
26824;SDS011;14402;48.178;11.566;2023-11-19T00:50:59;2.8;;;1.2;;
26824;SDS011;14402;48.178;11.566;2023-11-19T00:51:30;2.8;;;1.2;;
26824;SDS011;14402;48.178;11.566;2023-11-19T00:52:00;2.2;;;1.2;;
26824;SDS011;14402;48.178;11.566;2023-11-19T00:52:30;1.6;;;1.2;;
26824;SDS011;14402;48.178;11.566;2023-11-19T00:53:00;1.6;;;1.2;;
26824;SDS011;14402;48.178;11.566;2023-11-19T00:53:30;1.6;;;1.2;;
26824;SDS011;14402;48.178;11.566;2023-11-19T00:54:00;1.8;;;1.2;;
26824;SDS011;14402;48.178;11.566;2023-11-19T00:54:30;2.0;;;1.3;;
26824;SDS011;14402;48.178;11.566;2023-11-19T00:55:00;2.0;;;1.3;;
26824;SDS011;14402;48.178;11.566;2023-11-19T00:55:30;2.0;;;1.3;;
26824;SDS011;14402;48.178;11.566;2023-11-19T00:56:00;2.0;;;1.3;;
26824;SDS011;14402;48.178;11.566;2023-11-19T00:56:30;2.0;;;1.3;;
26824;SDS011;14402;48.178;11.566;2023-11-19T00:57:01;2.0;;;1.3;;
26824;SDS011;14402;48.178;11.566;2023-11-19T00:57:31;2.0;;;1.3;;
26824;SDS011;14402;48.178;11.566;2023-11-19T00:58:01;2.2;;;1.2;;
26824;SDS011;14402;48.178;11.566;2023-11-19T00:58:31;2.5;;;1.2;;
26824;SDS011;14402;48.178;11.566;2023-11-19T00:59:01;2.5;;;1.2;;
26824;SDS011;14402;48.178;11.566;2023-11-19T00:59:31;2.5;;;1.2;;
26824;SDS011;14402;48.178;11.566;2023-11-19T01:00:01;2.0;;;1.1;;
26824;SDS011;14402;48.178;11.566;2023-11-19T01:00:31;1.6;;;1.0;;
26824;SDS011;14402;48.178;11.566;2023-11-19T01:01:01;1.6;;;1.0;;
26824;SDS011;14402;48.178;11.566;2023-11-19T01:01:31;1.6;;;1.0;;
26824;SDS011;14402;48.178;11.566;2023-11-19T01:02:01;1.6;;;1.1;;
26824;SDS011;14402;48.178;11.566;2023-11-19T01:02:32;1.6;;;1.3;;
26824;SDS011;14402;48.178;11.566;2023-11-19T01:03:02;1.6;;;1.3;;
26824;SDS011;14402;48.178;11.566;2023-11-19T01:03:32;1.6;;;1.3;;
26824;SDS011;14402;48.178;11.566;2023-11-19T01:04:02;1.7;;;1.3;;
26824;SDS011;14402;48.178;11.566;2023-11-19T01:04:33;1.8;;;1.4;;
26824;SDS011;14402;48.178;11.566;2023-11-19T01:05:02;1.8;;;1.4;;
26824;SDS011;14402;48.178;11.566;2023-11-19T01:05:32;1.8;;;1.4;;
26824;SDS011;14402;48.178;11.566;2023-11-19T01:06:02;2.2;;;1.5;;
26824;SDS011;14402;48.178;11.566;2023-11-19T01:06:32;2.7;;;1.5;;
26824;SDS011;14402;48.178;11.566;2023-11-19T01:07:03;2.7;;;1.5;;
26824;SDS011;14402;48.178;11.566;2023-11-19T01:07:32;2.7;;;1.5;;
26824;SDS011;14402;48.178;11.566;2023-11-19T01:08:03;2.3;;;1.4;;
26824;SDS011;14402;48.178;11.566;2023-11-19T01:08:33;1.9;;;1.3;;
26824;SDS011;14402;48.178;11.566;2023-11-19T01:09:03;1.9;;;1.3;;
26824;SDS011;14402;48.178;11.566;2023-11-19T01:09:33;1.9;;;1.3;;
26824;SDS011;14402;48.178;11.566;2023-11-19T01:10:03;1.8;;;1.3;;
26824;SDS011;14402;48.178;11.566;2023-11-19T01:10:33;1.6;;;1.3;;
26824;SDS011;14402;48.178;11.566;2023-11-19T01:11:03;1.6;;;1.3;;
26824;SDS011;14402;48.178;11.566;2023-11-19T01:11:33;1.6;;;1.3;;
26824;SDS011;14402;48.178;11.566;2023-11-19T01:12:03;1.8;;;1.4;;
26824;SDS011;14402;48.178;11.566;2023-11-19T01:12:33;1.9;;;1.5;;
26824;SDS011;14402;48.178;11.566;2023-11-19T01:13:03;1.9;;;1.5;;
26824;SDS011;14402;48.178;11.566;2023-11-19T01:13:33;1.9;;;1.5;;
26824;SDS011;14402;48.178;11.566;2023-11-19T01:14:03;1.7;;;1.4;;
26824;SDS011;14402;48.178;11.566;2023-11-19T01:14:33;1.5;;;1.3;;
26824;SDS011;14402;48.178;11.566;2023-11-19T01:15:04;1.5;;;1.3;;
26824;SDS011;14402;48.178;11.566;2023-11-19T01:15:33;1.5;;;1.3;;
26824;SDS011;14402;48.178;11.566;2023-11-19T01:16:04;1.7;;;1.3;;
26824;SDS011;14402;48.178;11.566;2023-11-19T01:16:33;1.9;;;1.3;;
26824;SDS011;14402;48.178;11.566;2023-11-19T01:17:36;1.9;;;1.3;;
26824;SDS011;14402;48.178;11.566;2023-11-19T01:18:04;1.8;;;1.2;;
26824;SDS011;14402;48.178;11.566;2023-11-19T01:18:34;1.8;;;1.2;;
26824;SDS011;14402;48.178;11.566;2023-11-19T01:19:04;1.8;;;1.2;;
26824;SDS011;14402;48.178;11.566;2023-11-19T01:19:34;1.8;;;1.2;;
26824;SDS011;14402;48.178;11.566;2023-11-19T01:20:04;1.5;;;1.1;;
26824;SDS011;14402;48.178;11.566;2023-11-19T01:20:34;1.2;;;1.0;;
26824;SDS011;14402;48.178;11.566;2023-11-19T01:21:04;1.2;;;1.0;;
26824;SDS011;14402;48.178;11.566;2023-11-19T01:21:34;1.2;;;1.0;;
26824;SDS011;14402;48.178;11.566;2023-11-19T01:22:04;1.5;;;1.1;;
26824;SDS011;14402;48.178;11.566;2023-11-19T01:22:34;1.9;;;1.3;;
26824;SDS011;14402;48.178;11.566;2023-11-19T01:23:04;1.9;;;1.3;;
26824;SDS011;14402;48.178;11.566;2023-11-19T01:23:34;1.9;;;1.3;;
26824;SDS011;14402;48.178;11.566;2023-11-19T01:24:04;1.6;;;1.2;;
26824;SDS011;14402;48.178;11.566;2023-11-19T01:24:34;1.3;;;1.1;;
26824;SDS011;14402;48.178;11.566;2023-11-19T01:25:04;1.3;;;1.1;;
26824;SDS011;14402;48.178;11.566;2023-11-19T01:25:34;1.3;;;1.1;;
26824;SDS011;14402;48.178;11.566;2023-11-19T01:26:04;1.7;;;1.1;;
26824;SDS011;14402;48.178;11.566;2023-11-19T01:26:34;2.1;;;1.1;;
26824;SDS011;14402;48.178;11.566;2023-11-19T01:27:04;2.1;;;1.1;;
26824;SDS011;14402;48.178;11.566;2023-11-19T01:27:34;2.1;;;1.1;;
26824;SDS011;14402;48.178;11.566;2023-11-19T01:28:04;2.0;;;1.2;;
26824;SDS011;14402;48.178;11.566;2023-11-19T01:28:34;2.0;;;1.4;;
26824;SDS011;14402;48.178;11.566;2023-11-19T01:29:05;2.0;;;1.4;;
26824;SDS011;14402;48.178;11.566;2023-11-19T01:29:35;2.0;;;1.4;;
26824;SDS011;14402;48.178;11.566;2023-11-19T01:30:05;1.8;;;1.3;;
26824;SDS011;14402;48.178;11.566;2023-11-19T01:30:35;1.5;;;1.2;;
26824;SDS011;14402;48.178;11.566;2023-11-19T01:31:05;1.5;;;1.2;;
26824;SDS011;14402;48.178;11.566;2023-11-19T01:31:35;1.5;;;1.2;;
26824;SDS011;14402;48.178;11.566;2023-11-19T01:32:05;1.9;;;1.2;;
26824;SDS011;14402;48.178;11.566;2023-11-19T01:32:35;2.3;;;1.1;;
26824;SDS011;14402;48.178;11.566;2023-11-19T01:33:05;2.3;;;1.1;;
26824;SDS011;14402;48.178;11.566;2023-11-19T01:33:35;2.3;;;1.1;;
26824;SDS011;14402;48.178;11.566;2023-11-19T01:34:05;2.0;;;1.2;;
26824;SDS011;14402;48.178;11.566;2023-11-19T01:34:35;1.7;;;1.2;;
26824;SDS011;14402;48.178;11.566;2023-11-19T01:35:06;1.7;;;1.2;;
26824;SDS011;14402;48.178;11.566;2023-11-19T01:35:36;1.7;;;1.2;;
26824;SDS011;14402;48.178;11.566;2023-11-19T01:36:06;1.8;;;1.5;;
26824;SDS011;14402;48.178;11.566;2023-11-19T01:36:36;1.9;;;1.7;;
26824;SDS011;14402;48.178;11.566;2023-11-19T01:37:06;1.9;;;1.7;;
26824;SDS011;14402;48.178;11.566;2023-11-19T01:37:36;1.9;;;1.7;;
26824;SDS011;14402;48.178;11.566;2023-11-19T01:38:06;1.6;;;1.3;;
26824;SDS011;14402;48.178;11.566;2023-11-19T01:38:36;1.4;;;0.9;;
26824;SDS011;14402;48.178;11.566;2023-11-19T01:39:06;1.4;;;0.9;;
26824;SDS011;14402;48.178;11.566;2023-11-19T01:39:36;1.4;;;0.9;;
26824;SDS011;14402;48.178;11.566;2023-11-19T01:40:06;1.4;;;1.0;;
26824;SDS011;14402;48.178;11.566;2023-11-19T01:40:36;1.4;;;1.1;;
26824;SDS011;14402;48.178;11.566;2023-11-19T01:41:06;1.4;;;1.1;;
26824;SDS011;14402;48.178;11.566;2023-11-19T01:41:36;1.4;;;1.1;;
26824;SDS011;14402;48.178;11.566;2023-11-19T01:42:06;1.5;;;1.0;;
26824;SDS011;14402;48.178;11.566;2023-11-19T01:42:36;1.5;;;0.9;;
26824;SDS011;14402;48.178;11.566;2023-11-19T01:43:07;1.5;;;0.9;;
26824;SDS011;14402;48.178;11.566;2023-11-19T01:43:37;1.5;;;0.9;;
26824;SDS011;14402;48.178;11.566;2023-11-19T01:44:07;1.4;;;0.9;;
26824;SDS011;14402;48.178;11.566;2023-11-19T01:44:37;1.3;;;1.0;;
26824;SDS011;14402;48.178;11.566;2023-11-19T01:45:07;1.3;;;1.0;;
26824;SDS011;14402;48.178;11.566;2023-11-19T01:45:37;1.3;;;1.0;;
26824;SDS011;14402;48.178;11.566;2023-11-19T01:46:07;1.5;;;1.0;;
26824;SDS011;14402;48.178;11.566;2023-11-19T01:46:37;1.8;;;1.1;;
26824;SDS011;14402;48.178;11.566;2023-11-19T01:47:08;1.8;;;1.1;;
26824;SDS011;14402;48.178;11.566;2023-11-19T01:47:37;1.8;;;1.1;;
26824;SDS011;14402;48.178;11.566;2023-11-19T01:48:08;2.7;;;1.1;;
26824;SDS011;14402;48.178;11.566;2023-11-19T01:48:39;3.5;;;1.1;;
26824;SDS011;14402;48.178;11.566;2023-11-19T01:49:08;3.5;;;1.1;;
26824;SDS011;14402;48.178;11.566;2023-11-19T01:49:38;3.5;;;1.1;;
26824;SDS011;14402;48.178;11.566;2023-11-19T01:50:08;2.6;;;1.0;;
26824;SDS011;14402;48.178;11.566;2023-11-19T01:50:38;1.7;;;0.9;;
26824;SDS011;14402;48.178;11.566;2023-11-19T01:51:08;1.7;;;0.9;;
26824;SDS011;14402;48.178;11.566;2023-11-19T01:51:38;1.7;;;0.9;;
26824;SDS011;14402;48.178;11.566;2023-11-19T01:52:08;1.5;;;0.9;;
26824;SDS011;14402;48.178;11.566;2023-11-19T01:52:38;1.3;;;1.0;;
26824;SDS011;14402;48.178;11.566;2023-11-19T01:53:08;1.3;;;1.0;;
26824;SDS011;14402;48.178;11.566;2023-11-19T01:53:38;1.3;;;1.0;;
26824;SDS011;14402;48.178;11.566;2023-11-19T01:54:09;1.3;;;1.0;;
26824;SDS011;14402;48.178;11.566;2023-11-19T01:54:39;1.4;;;1.0;;
26824;SDS011;14402;48.178;11.566;2023-11-19T01:55:09;1.4;;;1.0;;
26824;SDS011;14402;48.178;11.566;2023-11-19T01:55:39;1.4;;;1.0;;
26824;SDS011;14402;48.178;11.566;2023-11-19T01:56:09;1.5;;;1.0;;
26824;SDS011;14402;48.178;11.566;2023-11-19T01:56:39;1.6;;;1.1;;
26824;SDS011;14402;48.178;11.566;2023-11-19T01:57:09;1.6;;;1.1;;
26824;SDS011;14402;48.178;11.566;2023-11-19T01:57:39;1.6;;;1.1;;
26824;SDS011;14402;48.178;11.566;2023-11-19T01:58:09;1.5;;;1.0;;
26824;SDS011;14402;48.178;11.566;2023-11-19T01:58:39;1.3;;;1.0;;
26824;SDS011;14402;48.178;11.566;2023-11-19T01:59:09;1.3;;;1.0;;
26824;SDS011;14402;48.178;11.566;2023-11-19T01:59:39;1.3;;;1.0;;
26824;SDS011;14402;48.178;11.566;2023-11-19T02:00:10;1.2;;;0.9;;
26824;SDS011;14402;48.178;11.566;2023-11-19T02:00:39;1.1;;;0.9;;
26824;SDS011;14402;48.178;11.566;2023-11-19T02:01:09;1.1;;;0.9;;
26824;SDS011;14402;48.178;11.566;2023-11-19T02:01:40;1.1;;;0.9;;
26824;SDS011;14402;48.178;11.566;2023-11-19T02:02:09;1.1;;;0.9;;
26824;SDS011;14402;48.178;11.566;2023-11-19T02:02:40;1.1;;;0.8;;
26824;SDS011;14402;48.178;11.566;2023-11-19T02:03:10;1.1;;;0.8;;
26824;SDS011;14402;48.178;11.566;2023-11-19T02:03:40;1.1;;;0.8;;
26824;SDS011;14402;48.178;11.566;2023-11-19T02:04:10;1.1;;;0.8;;
26824;SDS011;14402;48.178;11.566;2023-11-19T02:04:40;1.1;;;0.7;;
26824;SDS011;14402;48.178;11.566;2023-11-19T02:05:10;1.1;;;0.7;;
26824;SDS011;14402;48.178;11.566;2023-11-19T02:05:40;1.1;;;0.7;;
26824;SDS011;14402;48.178;11.566;2023-11-19T02:06:10;1.5;;;0.8;;
26824;SDS011;14402;48.178;11.566;2023-11-19T02:06:40;2.0;;;0.8;;
26824;SDS011;14402;48.178;11.566;2023-11-19T02:07:10;2.0;;;0.8;;
26824;SDS011;14402;48.178;11.566;2023-11-19T02:07:40;2.0;;;0.8;;
26824;SDS011;14402;48.178;11.566;2023-11-19T02:08:10;1.7;;;0.8;;
26824;SDS011;14402;48.178;11.566;2023-11-19T02:08:40;1.4;;;0.8;;
26824;SDS011;14402;48.178;11.566;2023-11-19T02:09:11;1.4;;;0.8;;
26824;SDS011;14402;48.178;11.566;2023-11-19T02:09:41;1.4;;;0.8;;
26824;SDS011;14402;48.178;11.566;2023-11-19T02:10:11;1.1;;;0.6;;
26824;SDS011;14402;48.178;11.566;2023-11-19T02:10:41;0.8;;;0.5;;
26824;SDS011;14402;48.178;11.566;2023-11-19T02:11:11;0.8;;;0.5;;
26824;SDS011;14402;48.178;11.566;2023-11-19T02:11:41;0.8;;;0.5;;
26824;SDS011;14402;48.178;11.566;2023-11-19T02:12:11;1.0;;;0.6;;
26824;SDS011;14402;48.178;11.566;2023-11-19T02:12:41;1.1;;;0.7;;
26824;SDS011;14402;48.178;11.566;2023-11-19T02:13:11;1.1;;;0.7;;
26824;SDS011;14402;48.178;11.566;2023-11-19T02:13:41;1.1;;;0.7;;
26824;SDS011;14402;48.178;11.566;2023-11-19T02:14:11;0.9;;;0.6;;
26824;SDS011;14402;48.178;11.566;2023-11-19T02:14:41;0.7;;;0.5;;
26824;SDS011;14402;48.178;11.566;2023-11-19T02:15:11;0.7;;;0.5;;
26824;SDS011;14402;48.178;11.566;2023-11-19T02:15:41;0.7;;;0.5;;
26824;SDS011;14402;48.178;11.566;2023-11-19T02:16:11;1.0;;;0.6;;
26824;SDS011;14402;48.178;11.566;2023-11-19T02:16:41;1.2;;;0.7;;
26824;SDS011;14402;48.178;11.566;2023-11-19T02:17:24;1.2;;;0.7;;
26824;SDS011;14402;48.178;11.566;2023-11-19T02:17:41;1.2;;;0.7;;
26824;SDS011;14402;48.178;11.566;2023-11-19T02:18:20;1.2;;;0.6;;
26824;SDS011;14402;48.178;11.566;2023-11-19T02:18:42;1.1;;;0.6;;
26824;SDS011;14402;48.178;11.566;2023-11-19T02:19:12;1.1;;;0.6;;
26824;SDS011;14402;48.178;11.566;2023-11-19T02:19:42;1.1;;;0.6;;
26824;SDS011;14402;48.178;11.566;2023-11-19T02:20:12;1.0;;;0.6;;
26824;SDS011;14402;48.178;11.566;2023-11-19T02:20:42;0.9;;;0.6;;
26824;SDS011;14402;48.178;11.566;2023-11-19T02:21:12;0.9;;;0.6;;
26824;SDS011;14402;48.178;11.566;2023-11-19T02:21:42;0.9;;;0.6;;
26824;SDS011;14402;48.178;11.566;2023-11-19T02:22:12;1.3;;;0.7;;
26824;SDS011;14402;48.178;11.566;2023-11-19T02:22:42;1.8;;;0.8;;
26824;SDS011;14402;48.178;11.566;2023-11-19T02:23:13;1.8;;;0.8;;
26824;SDS011;14402;48.178;11.566;2023-11-19T02:23:42;1.8;;;0.8;;
26824;SDS011;14402;48.178;11.566;2023-11-19T02:24:14;1.5;;;0.6;;
26824;SDS011;14402;48.178;11.566;2023-11-19T02:24:43;1.2;;;0.5;;
26824;SDS011;14402;48.178;11.566;2023-11-19T02:25:15;1.2;;;0.5;;
26824;SDS011;14402;48.178;11.566;2023-11-19T02:25:43;1.2;;;0.5;;
26824;SDS011;14402;48.178;11.566;2023-11-19T02:26:14;2.1;;;0.6;;
26824;SDS011;14402;48.178;11.566;2023-11-19T02:26:44;3.0;;;0.7;;
26824;SDS011;14402;48.178;11.566;2023-11-19T02:27:14;3.0;;;0.7;;
26824;SDS011;14402;48.178;11.566;2023-11-19T02:27:46;3.0;;;0.7;;
26824;SDS011;14402;48.178;11.566;2023-11-19T02:28:13;2.2;;;0.8;;
26824;SDS011;14402;48.178;11.566;2023-11-19T02:28:43;1.3;;;0.8;;
26824;SDS011;14402;48.178;11.566;2023-11-19T02:29:13;1.3;;;0.8;;
26824;SDS011;14402;48.178;11.566;2023-11-19T02:29:43;1.3;;;0.8;;
26824;SDS011;14402;48.178;11.566;2023-11-19T02:30:13;1.2;;;0.7;;
26824;SDS011;14402;48.178;11.566;2023-11-19T02:30:43;1.1;;;0.6;;
26824;SDS011;14402;48.178;11.566;2023-11-19T02:31:13;1.1;;;0.6;;
26824;SDS011;14402;48.178;11.566;2023-11-19T02:31:43;1.1;;;0.6;;
26824;SDS011;14402;48.178;11.566;2023-11-19T02:32:14;1.2;;;0.6;;
26824;SDS011;14402;48.178;11.566;2023-11-19T02:32:43;1.4;;;0.7;;
26824;SDS011;14402;48.178;11.566;2023-11-19T02:33:13;1.4;;;0.7;;
26824;SDS011;14402;48.178;11.566;2023-11-19T02:33:44;1.4;;;0.7;;
26824;SDS011;14402;48.178;11.566;2023-11-19T02:34:14;1.2;;;0.7;;
26824;SDS011;14402;48.178;11.566;2023-11-19T02:34:44;1.0;;;0.7;;
26824;SDS011;14402;48.178;11.566;2023-11-19T02:35:14;1.0;;;0.7;;
26824;SDS011;14402;48.178;11.566;2023-11-19T02:35:44;1.0;;;0.7;;
26824;SDS011;14402;48.178;11.566;2023-11-19T02:36:14;1.4;;;0.9;;
26824;SDS011;14402;48.178;11.566;2023-11-19T02:36:44;1.7;;;1.0;;
26824;SDS011;14402;48.178;11.566;2023-11-19T02:37:14;1.7;;;1.0;;
26824;SDS011;14402;48.178;11.566;2023-11-19T02:37:44;1.7;;;1.0;;
26824;SDS011;14402;48.178;11.566;2023-11-19T02:38:14;1.5;;;0.9;;
26824;SDS011;14402;48.178;11.566;2023-11-19T02:38:44;1.4;;;0.8;;
26824;SDS011;14402;48.178;11.566;2023-11-19T02:39:14;1.4;;;0.8;;
26824;SDS011;14402;48.178;11.566;2023-11-19T02:39:44;1.4;;;0.8;;
26824;SDS011;14402;48.178;11.566;2023-11-19T02:40:14;2.2;;;0.8;;
26824;SDS011;14402;48.178;11.566;2023-11-19T02:40:44;2.9;;;0.8;;
26824;SDS011;14402;48.178;11.566;2023-11-19T02:41:14;2.9;;;0.8;;
26824;SDS011;14402;48.178;11.566;2023-11-19T02:41:44;2.9;;;0.8;;
26824;SDS011;14402;48.178;11.566;2023-11-19T02:42:15;2.0;;;0.7;;
26824;SDS011;14402;48.178;11.566;2023-11-19T02:42:45;1.0;;;0.6;;
26824;SDS011;14402;48.178;11.566;2023-11-19T02:43:15;1.0;;;0.6;;
26824;SDS011;14402;48.178;11.566;2023-11-19T02:43:45;1.0;;;0.6;;
26824;SDS011;14402;48.178;11.566;2023-11-19T02:44:15;1.2;;;0.6;;
26824;SDS011;14402;48.178;11.566;2023-11-19T02:44:45;1.4;;;0.7;;
26824;SDS011;14402;48.178;11.566;2023-11-19T02:45:15;1.4;;;0.7;;
26824;SDS011;14402;48.178;11.566;2023-11-19T02:45:45;1.4;;;0.7;;
26824;SDS011;14402;48.178;11.566;2023-11-19T02:46:15;1.3;;;0.7;;
26824;SDS011;14402;48.178;11.566;2023-11-19T02:46:45;1.3;;;0.7;;
26824;SDS011;14402;48.178;11.566;2023-11-19T02:47:15;1.3;;;0.7;;
26824;SDS011;14402;48.178;11.566;2023-11-19T02:47:45;1.3;;;0.7;;
26824;SDS011;14402;48.178;11.566;2023-11-19T02:48:15;1.1;;;0.6;;
26824;SDS011;14402;48.178;11.566;2023-11-19T02:48:45;0.9;;;0.6;;
26824;SDS011;14402;48.178;11.566;2023-11-19T02:49:15;0.9;;;0.6;;
26824;SDS011;14402;48.178;11.566;2023-11-19T02:49:45;0.9;;;0.6;;
26824;SDS011;14402;48.178;11.566;2023-11-19T02:50:17;0.9;;;0.6;;
26824;SDS011;14402;48.178;11.566;2023-11-19T02:50:45;0.9;;;0.5;;
26824;SDS011;14402;48.178;11.566;2023-11-19T02:51:15;0.9;;;0.5;;
26824;SDS011;14402;48.178;11.566;2023-11-19T02:51:46;0.9;;;0.5;;
26824;SDS011;14402;48.178;11.566;2023-11-19T02:52:16;1.1;;;0.6;;
26824;SDS011;14402;48.178;11.566;2023-11-19T02:52:46;1.4;;;0.6;;
26824;SDS011;14402;48.178;11.566;2023-11-19T02:53:16;1.4;;;0.6;;
26824;SDS011;14402;48.178;11.566;2023-11-19T02:53:46;1.4;;;0.6;;
26824;SDS011;14402;48.178;11.566;2023-11-19T02:54:16;1.5;;;0.6;;
26824;SDS011;14402;48.178;11.566;2023-11-19T02:54:46;1.6;;;0.6;;
26824;SDS011;14402;48.178;11.566;2023-11-19T02:55:16;1.6;;;0.6;;
26824;SDS011;14402;48.178;11.566;2023-11-19T02:55:46;1.6;;;0.6;;
26824;SDS011;14402;48.178;11.566;2023-11-19T02:56:16;1.5;;;0.6;;
26824;SDS011;14402;48.178;11.566;2023-11-19T02:56:46;1.4;;;0.5;;
26824;SDS011;14402;48.178;11.566;2023-11-19T02:57:16;1.4;;;0.5;;
26824;SDS011;14402;48.178;11.566;2023-11-19T02:57:46;1.4;;;0.5;;
26824;SDS011;14402;48.178;11.566;2023-11-19T02:58:16;1.3;;;0.6;;
26824;SDS011;14402;48.178;11.566;2023-11-19T02:58:46;1.3;;;0.7;;
26824;SDS011;14402;48.178;11.566;2023-11-19T02:59:16;1.3;;;0.7;;
26824;SDS011;14402;48.178;11.566;2023-11-19T02:59:46;1.3;;;0.7;;
26824;SDS011;14402;48.178;11.566;2023-11-19T03:00:17;1.1;;;0.6;;
26824;SDS011;14402;48.178;11.566;2023-11-19T03:00:46;0.9;;;0.5;;
26824;SDS011;14402;48.178;11.566;2023-11-19T03:01:21;0.9;;;0.5;;
26824;SDS011;14402;48.178;11.566;2023-11-19T03:01:47;0.9;;;0.5;;
26824;SDS011;14402;48.178;11.566;2023-11-19T03:02:17;0.8;;;0.5;;
26824;SDS011;14402;48.178;11.566;2023-11-19T03:02:47;0.7;;;0.5;;
26824;SDS011;14402;48.178;11.566;2023-11-19T03:03:17;0.7;;;0.5;;
26824;SDS011;14402;48.178;11.566;2023-11-19T03:03:47;0.7;;;0.5;;
26824;SDS011;14402;48.178;11.566;2023-11-19T03:04:17;0.8;;;0.5;;